createdAt,value
2017-07-05T00:02:20.166Z,20.63
2017-07-05T00:04:48.237Z,24.57
2017-07-05T00:07:16.299Z,22.00
2017-07-05T00:09:44.363Z,21.63
2017-07-05T00:12:12.437Z,24.17
2017-07-05T00:14:40.519Z,25.67
2017-07-05T00:17:08.591Z,22.33
2017-07-05T00:19:36.651Z,23.63
2017-07-05T00:22:04.771Z,24.77
2017-07-05T00:24:32.841Z,22.50
2017-07-05T00:27:00.917Z,26.07
2017-07-05T00:29:28.987Z,24.03
2017-07-05T00:31:57.065Z,21.60
2017-07-05T00:34:25.900Z,22.53
2017-07-05T00:36:53.962Z,25.63
2017-07-05T00:39:22.053Z,21.80
2017-07-05T00:41:50.111Z,25.80
2017-07-05T00:44:18.238Z,22.27
2017-07-05T00:46:46.331Z,24.13
2017-07-05T00:49:14.394Z,22.80
2017-07-05T00:51:43.225Z,22.00
2017-07-05T00:54:11.305Z,23.13
2017-07-05T00:56:39.398Z,22.77
2017-07-05T00:59:07.479Z,21.40
2017-07-05T01:01:35.552Z,21.10
2017-07-05T01:04:03.618Z,21.27
2017-07-05T01:06:32.521Z,20.40
2017-07-05T01:09:00.576Z,23.07
2017-07-05T01:11:28.655Z,23.37
2017-07-05T01:13:56.723Z,21.97
2017-07-05T01:16:24.789Z,24.27
2017-07-05T01:18:52.858Z,22.47
2017-07-05T01:21:20.935Z,23.43
2017-07-05T01:23:48.998Z,21.20
2017-07-05T01:26:17.071Z,21.70
2017-07-05T01:28:45.148Z,24.20
2017-07-05T01:31:13.223Z,24.40
2017-07-05T01:33:41.307Z,23.67
2017-07-05T01:36:10.220Z,24.63
2017-07-05T01:38:39.019Z,25.77
2017-07-05T01:41:07.103Z,22.57
2017-07-05T01:43:35.167Z,25.27
2017-07-05T01:46:03.278Z,24.13
2017-07-05T01:48:31.347Z,26.53
2017-07-05T01:50:59.421Z,27.03
2017-07-05T01:53:27.484Z,28.03
2017-07-05T01:55:55.546Z,27.27
2017-07-05T01:58:24.199Z,31.70
2017-07-05T02:00:52.279Z,27.17
2017-07-05T02:03:20.352Z,28.97
2017-07-05T02:05:48.456Z,29.23
2017-07-05T02:08:16.528Z,25.67
2017-07-05T02:10:44.574Z,29.20
2017-07-05T02:13:13.195Z,29.47
2017-07-05T02:15:42.047Z,32.03
2017-07-05T02:18:10.125Z,31.03
2017-07-05T02:20:39.067Z,27.87
2017-07-05T02:23:07.170Z,29.20
2017-07-05T02:25:36.051Z,27.83
2017-07-05T02:28:04.128Z,28.10
2017-07-05T02:30:32.238Z,30.50
2017-07-05T02:33:00.338Z,30.00
2017-07-05T02:35:28.654Z,29.77
2017-07-05T02:37:56.708Z,29.67
2017-07-05T02:40:24.771Z,26.57
2017-07-05T02:42:52.832Z,27.07
2017-07-05T02:45:20.927Z,26.10
2017-07-05T02:47:48.999Z,26.57
2017-07-05T02:50:17.071Z,27.43
2017-07-05T02:52:45.142Z,25.63
2017-07-05T02:55:13.219Z,28.50
2017-07-05T02:57:42.047Z,28.80
2017-07-05T03:00:10.217Z,29.63
2017-07-05T03:02:39.060Z,29.00
2017-07-05T03:05:07.131Z,26.43
2017-07-05T03:07:35.199Z,28.90
2017-07-05T03:10:03.273Z,31.20
2017-07-05T03:12:31.371Z,29.00
2017-07-05T03:15:00.210Z,29.10
2017-07-05T03:17:28.271Z,23.10
2017-07-05T03:19:56.328Z,27.20
2017-07-05T03:22:24.410Z,28.23
2017-07-05T03:24:52.500Z,26.93
2017-07-05T03:27:20.564Z,27.17
2017-07-05T03:29:48.635Z,29.67
2017-07-05T03:32:16.713Z,28.00
2017-07-05T03:34:44.852Z,29.20
2017-07-05T03:37:12.892Z,25.40
2017-07-05T03:39:40.971Z,26.80
2017-07-05T03:42:09.041Z,28.13
2017-07-05T03:44:37.121Z,22.50
2017-07-05T03:47:05.170Z,25.87
2017-07-05T03:49:33.253Z,26.10
2017-07-05T03:52:01.338Z,27.00
2017-07-05T03:54:29.400Z,29.23
2017-07-05T03:56:57.496Z,27.07
2017-07-05T03:59:25.567Z,28.70
2017-07-05T04:01:53.633Z,26.27
2017-07-05T04:04:21.713Z,28.23
2017-07-05T04:06:49.784Z,27.10
2017-07-05T04:09:17.848Z,28.10
2017-07-05T04:11:45.915Z,26.47
2017-07-05T04:14:13.987Z,27.10
2017-07-05T04:16:42.040Z,24.57
2017-07-05T04:19:10.122Z,27.77
2017-07-05T04:21:38.188Z,27.17
2017-07-05T04:24:06.264Z,27.47
2017-07-05T04:26:34.321Z,26.57
2017-07-05T04:29:02.378Z,27.80
2017-07-05T04:31:30.471Z,26.00
2017-07-05T04:33:58.559Z,26.93
2017-07-05T04:36:26.639Z,28.50
2017-07-05T04:38:55.106Z,28.13
2017-07-05T04:41:23.166Z,26.80
2017-07-05T04:43:52.368Z,24.37
2017-07-05T04:46:20.423Z,25.60
2017-07-05T04:48:49.257Z,24.73
2017-07-05T04:51:17.336Z,25.90
2017-07-05T04:53:45.407Z,27.10
2017-07-05T04:56:13.495Z,24.87
2017-07-05T04:58:41.564Z,23.90
2017-07-05T05:01:09.640Z,28.53
2017-07-05T05:03:37.713Z,27.53
2017-07-05T05:06:05.931Z,23.57
2017-07-05T05:08:34.015Z,25.53
2017-07-05T05:11:02.099Z,26.97
2017-07-05T05:13:30.168Z,25.07
2017-07-05T05:15:58.252Z,26.03
2017-07-05T05:18:26.335Z,24.97
2017-07-05T05:20:54.392Z,25.73
2017-07-05T05:23:22.499Z,31.50
2017-07-05T05:25:50.551Z,25.03
2017-07-05T05:28:18.620Z,26.67
2017-07-05T05:30:46.711Z,25.10
2017-07-05T05:33:14.787Z,26.97
2017-07-05T05:35:42.872Z,23.40
2017-07-05T05:38:10.948Z,24.50
2017-07-05T05:40:39.019Z,26.50
2017-07-05T05:43:07.101Z,24.30
2017-07-05T05:45:35.815Z,26.70
2017-07-05T05:48:03.887Z,25.43
2017-07-05T05:50:31.960Z,27.03
2017-07-05T05:53:00.031Z,25.63
2017-07-05T05:55:28.110Z,27.17
2017-07-05T05:57:56.164Z,29.87
2017-07-05T06:00:24.235Z,28.63
2017-07-05T06:02:52.324Z,29.03
2017-07-05T06:05:20.383Z,30.33
2017-07-05T06:07:48.443Z,25.63
2017-07-05T06:10:16.530Z,23.37
2017-07-05T06:12:44.582Z,26.87
2017-07-05T06:15:12.874Z,25.23
2017-07-05T06:17:40.931Z,27.27
2017-07-05T06:20:09.003Z,27.40
2017-07-05T06:22:37.087Z,27.97
2017-07-05T06:25:05.190Z,27.30
2017-07-05T06:27:33.259Z,26.03
2017-07-05T06:30:02.100Z,26.67
2017-07-05T06:32:30.167Z,27.03
2017-07-05T06:34:58.235Z,27.00
2017-07-05T06:37:26.316Z,26.43
2017-07-05T06:39:54.383Z,27.53
2017-07-05T06:42:22.459Z,23.10
2017-07-05T06:44:50.531Z,27.50
2017-07-05T06:47:18.623Z,27.77
2017-07-05T06:49:46.691Z,26.10
2017-07-05T06:52:15.548Z,25.47
2017-07-05T06:54:43.630Z,29.03
2017-07-05T06:57:11.699Z,24.00
2017-07-05T06:59:39.775Z,26.83
2017-07-05T07:02:07.868Z,23.87
2017-07-05T07:04:35.947Z,24.93
2017-07-05T07:07:04.009Z,23.27
2017-07-05T07:09:32.077Z,26.40
2017-07-05T07:12:00.150Z,26.33
2017-07-05T07:14:28.230Z,24.97
2017-07-05T07:16:56.779Z,26.30
2017-07-05T07:19:24.875Z,24.43
2017-07-05T07:21:52.936Z,23.80
2017-07-05T07:24:21.016Z,27.77
2017-07-05T07:26:49.091Z,25.60
2017-07-05T07:29:17.263Z,24.07
2017-07-05T07:31:45.334Z,26.87
2017-07-05T07:34:13.397Z,27.50
2017-07-05T07:36:41.489Z,28.50
2017-07-05T07:39:09.559Z,27.23
2017-07-05T07:41:37.615Z,29.00
2017-07-05T07:44:05.686Z,30.33
2017-07-05T07:46:33.750Z,31.67
2017-07-05T07:49:01.823Z,33.30
2017-07-05T07:51:29.908Z,33.53
2017-07-05T07:53:57.983Z,37.27
2017-07-05T07:56:26.051Z,39.33
2017-07-05T07:58:54.295Z,39.83
2017-07-05T08:01:22.370Z,37.87
2017-07-05T08:03:50.422Z,38.10
2017-07-05T08:06:18.495Z,36.70
2017-07-05T08:08:46.584Z,37.27
2017-07-05T08:11:14.657Z,38.30
2017-07-05T08:13:42.734Z,39.87
2017-07-05T08:16:10.823Z,37.43
2017-07-05T08:18:38.895Z,36.63
2017-07-05T08:21:06.948Z,37.00
2017-07-05T08:23:35.023Z,37.90
2017-07-05T08:26:03.111Z,39.07
2017-07-05T08:28:31.201Z,37.43
2017-07-05T08:31:00.022Z,34.50
2017-07-05T08:33:28.095Z,33.37
2017-07-05T08:35:56.167Z,32.37
2017-07-05T08:38:24.234Z,39.00
2017-07-05T08:40:52.313Z,38.90
2017-07-05T08:43:20.386Z,32.33
2017-07-05T08:45:48.449Z,33.93
2017-07-05T08:48:16.537Z,34.00
2017-07-05T08:50:44.608Z,33.07
2017-07-05T08:53:12.671Z,30.77
2017-07-05T08:55:40.775Z,30.87
2017-07-05T08:58:08.819Z,31.27
2017-07-05T09:00:36.884Z,31.47
2017-07-05T09:03:04.963Z,32.30
2017-07-05T09:05:33.013Z,30.80
2017-07-05T09:08:01.641Z,32.73
2017-07-05T09:10:30.464Z,29.97
2017-07-05T09:12:58.535Z,32.40
2017-07-05T09:15:26.602Z,30.07
2017-07-05T09:17:54.677Z,30.23
2017-07-05T09:20:22.769Z,29.17
2017-07-05T09:22:50.838Z,30.37
2017-07-05T09:25:18.944Z,31.17
2017-07-05T09:27:47.003Z,26.70
2017-07-05T09:30:15.075Z,32.27
2017-07-05T09:32:43.175Z,28.80
2017-07-05T09:35:11.216Z,30.00
2017-07-05T09:37:39.313Z,32.50
2017-07-05T09:40:08.112Z,29.20
2017-07-05T09:42:37.283Z,27.13
2017-07-05T09:45:05.340Z,26.63
2017-07-05T09:47:33.398Z,32.37
2017-07-05T09:50:01.475Z,29.37
2017-07-05T09:52:29.552Z,26.37
2017-07-05T09:54:57.659Z,30.40
2017-07-05T09:57:26.491Z,29.10
2017-07-05T09:59:54.552Z,28.13
2017-07-05T10:02:22.632Z,27.77
2017-07-05T10:04:50.723Z,24.67
2017-07-05T10:07:18.794Z,27.70
2017-07-05T10:09:46.861Z,25.47
2017-07-05T10:12:14.934Z,24.93
2017-07-05T10:14:43.026Z,25.60
2017-07-05T10:17:11.091Z,31.53
2017-07-05T10:19:39.174Z,30.80
2017-07-05T10:22:07.250Z,31.03
2017-07-05T10:24:36.089Z,31.83
2017-07-05T10:27:04.175Z,29.37
2017-07-05T10:29:32.244Z,32.83
2017-07-05T10:32:00.313Z,34.50
2017-07-05T10:34:28.393Z,30.23
2017-07-05T10:36:56.488Z,30.07
2017-07-05T10:39:24.555Z,24.87
2017-07-05T10:41:52.627Z,30.73
2017-07-05T10:44:21.465Z,28.67
2017-07-05T10:46:49.572Z,28.20
2017-07-05T10:49:17.691Z,21.47
2017-07-05T10:51:46.512Z,20.80
2017-07-05T10:54:14.595Z,22.60
2017-07-05T10:56:42.670Z,19.70
2017-07-05T10:59:10.742Z,20.70
2017-07-05T11:01:38.803Z,19.73
2017-07-05T11:04:06.887Z,21.63
2017-07-05T11:06:34.973Z,20.17
2017-07-05T11:09:03.031Z,19.50
2017-07-05T11:11:31.158Z,18.00
2017-07-05T11:13:59.200Z,17.27
2017-07-05T11:16:27.262Z,16.30
2017-07-05T11:18:56.096Z,15.63
2017-07-05T11:21:24.155Z,15.87
2017-07-05T11:23:52.252Z,14.50
2017-07-05T11:26:20.324Z,15.60
2017-07-05T11:28:48.409Z,15.67
2017-07-05T11:31:16.489Z,16.93
2017-07-05T11:33:44.615Z,16.10
2017-07-05T11:36:12.683Z,15.43
2017-07-05T11:38:40.814Z,13.63
2017-07-05T11:41:08.907Z,16.77
2017-07-05T11:43:36.952Z,16.33
2017-07-05T11:46:05.031Z,16.97
2017-07-05T11:48:33.096Z,18.60
2017-07-05T11:51:01.213Z,18.90
2017-07-05T11:53:30.038Z,17.67
2017-07-05T11:55:58.119Z,20.47
2017-07-05T11:58:26.184Z,20.70
2017-07-05T12:00:54.267Z,15.17
2017-07-05T12:03:22.353Z,12.03
2017-07-05T12:05:50.415Z,15.40
2017-07-05T12:08:18.509Z,18.60
2017-07-05T12:10:47.376Z,17.40
2017-07-05T12:13:16.237Z,17.47
2017-07-05T12:15:44.332Z,18.50
2017-07-05T12:18:12.411Z,18.33
2017-07-05T12:20:40.479Z,17.07
2017-07-05T12:23:09.427Z,16.53
2017-07-05T12:25:37.499Z,18.00
2017-07-05T12:28:05.560Z,15.13
2017-07-05T12:30:33.639Z,16.33
2017-07-05T12:33:01.735Z,12.10
2017-07-05T12:35:29.802Z,14.40
2017-07-05T12:37:57.876Z,15.23
2017-07-05T12:40:25.956Z,16.80
2017-07-05T12:42:54.020Z,16.53
2017-07-05T12:45:22.114Z,15.97
2017-07-05T12:47:50.181Z,14.03
2017-07-05T12:50:18.245Z,14.40
2017-07-05T12:52:46.332Z,13.20
2017-07-05T12:55:14.399Z,14.17
2017-07-05T12:57:42.495Z,14.33
2017-07-05T13:00:10.563Z,16.03
2017-07-05T13:02:38.615Z,14.07
2017-07-05T13:05:06.687Z,15.13
2017-07-05T13:07:34.751Z,15.93
2017-07-05T13:10:02.833Z,17.00
2017-07-05T13:12:30.906Z,18.00
2017-07-05T13:14:59.015Z,17.57
2017-07-05T13:17:27.864Z,17.63
2017-07-05T13:19:55.922Z,18.60
2017-07-05T13:22:24.026Z,17.80
2017-07-05T13:24:52.097Z,19.30
2017-07-05T13:27:20.169Z,18.17
2017-07-05T13:29:48.243Z,15.67
2017-07-05T13:32:16.305Z,15.17
2017-07-05T13:34:44.426Z,15.60
2017-07-05T13:37:13.244Z,15.93
2017-07-05T13:39:41.372Z,16.03
2017-07-05T13:42:09.415Z,14.47
2017-07-05T13:44:37.570Z,15.80
2017-07-05T13:47:05.634Z,18.77
2017-07-05T13:49:33.693Z,16.13
2017-07-05T13:52:02.559Z,16.67
2017-07-05T13:54:30.633Z,15.17
2017-07-05T13:56:58.706Z,18.73
2017-07-05T13:59:26.768Z,15.87
2017-07-05T14:01:54.836Z,17.47
2017-07-05T14:04:22.932Z,17.10
2017-07-05T14:06:51.752Z,16.87
2017-07-05T14:09:20.647Z,14.83
2017-07-05T14:11:48.729Z,15.30
2017-07-05T14:14:16.808Z,14.23
2017-07-05T14:16:44.871Z,16.70
2017-07-05T14:19:12.963Z,17.60
2017-07-05T14:21:41.047Z,18.43
2017-07-05T14:24:09.146Z,16.30
2017-07-05T14:26:37.976Z,17.47
2017-07-05T14:29:06.027Z,16.17
2017-07-05T14:31:34.140Z,15.93
2017-07-05T14:34:02.208Z,16.57
2017-07-05T14:36:30.275Z,15.67
2017-07-05T14:38:58.367Z,16.37
2017-07-05T14:41:26.489Z,14.80
2017-07-05T14:43:54.491Z,14.97
2017-07-05T14:46:22.649Z,15.40
2017-07-05T14:48:51.472Z,14.67
2017-07-05T14:51:19.547Z,16.70
2017-07-05T14:53:47.616Z,16.53
2017-07-05T14:56:15.707Z,17.17
2017-07-05T14:58:44.275Z,16.43
2017-07-05T15:01:12.360Z,17.83
2017-07-05T15:03:40.452Z,16.17
2017-07-05T15:06:08.509Z,14.40
2017-07-05T15:08:36.594Z,15.33
2017-07-05T15:11:05.461Z,15.33
2017-07-05T15:13:33.530Z,16.33
2017-07-05T15:16:01.631Z,16.60
2017-07-05T15:18:30.496Z,14.83
2017-07-05T15:20:58.563Z,13.40
2017-07-05T15:23:26.650Z,15.80
2017-07-05T15:25:54.751Z,16.67
2017-07-05T15:28:22.827Z,14.83
2017-07-05T15:30:51.801Z,15.67
2017-07-05T15:33:19.913Z,15.93
2017-07-05T15:35:47.950Z,13.77
2017-07-05T15:38:16.057Z,17.37
2017-07-05T15:40:44.132Z,15.33
2017-07-05T15:43:12.202Z,14.80
2017-07-05T15:45:40.286Z,14.40
2017-07-05T15:48:08.347Z,13.47
2017-07-05T15:50:36.418Z,13.53
2017-07-05T15:53:04.491Z,13.17
2017-07-05T15:55:32.575Z,13.87
2017-07-05T15:58:01.431Z,12.43
2017-07-05T16:00:29.492Z,10.67
2017-07-05T16:02:57.587Z,12.63
2017-07-05T16:05:25.669Z,11.37
2017-07-05T16:07:53.748Z,13.73
2017-07-05T16:10:22.605Z,12.33
2017-07-05T16:12:50.668Z,12.97
2017-07-05T16:15:18.748Z,13.77
2017-07-05T16:17:46.837Z,12.10
2017-07-05T16:20:14.907Z,13.00
2017-07-05T16:22:43.007Z,10.10
2017-07-05T16:25:11.850Z,12.17
2017-07-05T16:27:39.939Z,13.30
2017-07-05T16:30:08.064Z,12.83
2017-07-05T16:32:36.104Z,13.70
2017-07-05T16:35:04.947Z,12.03
2017-07-05T16:37:33.022Z,12.40
2017-07-05T16:40:01.087Z,11.20
2017-07-05T16:42:29.183Z,10.93
2017-07-05T16:44:57.273Z,10.53
2017-07-05T16:47:25.767Z,10.30
2017-07-05T16:49:53.840Z,9.20
2017-07-05T16:52:22.737Z,10.57
2017-07-05T16:54:50.811Z,9.80
2017-07-05T16:57:18.903Z,10.93
2017-07-05T16:59:46.974Z,10.77
2017-07-05T17:02:15.060Z,10.53
2017-07-05T17:04:43.123Z,14.07
2017-07-05T17:07:11.184Z,12.20
2017-07-05T17:09:39.255Z,9.90
2017-07-05T17:12:07.327Z,8.80
2017-07-05T17:14:35.410Z,9.83
2017-07-05T17:17:03.485Z,10.13
2017-07-05T17:19:31.538Z,10.40
2017-07-05T17:22:00.336Z,11.17
2017-07-05T17:24:28.395Z,11.33
2017-07-05T17:26:56.489Z,10.33
2017-07-05T17:29:25.339Z,10.07
2017-07-05T17:31:53.402Z,8.93
2017-07-05T17:34:21.484Z,12.07
2017-07-05T17:36:49.828Z,10.20
2017-07-05T17:39:17.904Z,12.03
2017-07-05T17:41:45.974Z,9.63
2017-07-05T17:44:14.054Z,10.10
2017-07-05T17:46:43.107Z,9.57
2017-07-05T17:49:11.180Z,10.17
2017-07-05T17:51:40.010Z,8.97
2017-07-05T17:54:08.123Z,9.70
2017-07-05T17:56:36.871Z,9.47
2017-07-05T17:59:04.944Z,8.70
2017-07-05T18:01:33.021Z,9.10
2017-07-05T18:04:01.095Z,9.73
2017-07-05T18:06:29.171Z,8.37
2017-07-05T18:08:57.245Z,9.60
2017-07-05T18:11:25.323Z,9.53
2017-07-05T18:13:53.386Z,9.67
2017-07-05T18:16:21.456Z,8.80
2017-07-05T18:18:49.553Z,8.20
2017-07-05T18:21:17.596Z,7.70
2017-07-05T18:23:45.673Z,8.87
2017-07-05T18:26:13.777Z,11.13
2017-07-05T18:28:42.615Z,10.00
2017-07-05T18:31:10.695Z,8.17
2017-07-05T18:33:38.777Z,8.43
2017-07-05T18:36:06.976Z,9.57
2017-07-05T18:38:35.079Z,8.40
2017-07-05T18:41:03.142Z,8.00
2017-07-05T18:43:31.995Z,7.40
2017-07-05T18:46:00.147Z,8.40
2017-07-05T18:48:28.217Z,8.50
2017-07-05T18:50:56.316Z,8.80
2017-07-05T18:53:24.381Z,8.17
2017-07-05T18:55:52.463Z,8.57
2017-07-05T18:58:20.566Z,8.20
2017-07-05T19:00:48.618Z,9.43
2017-07-05T19:03:17.464Z,11.63
2017-07-05T19:05:45.869Z,8.73
2017-07-05T19:08:14.116Z,9.30
2017-07-05T19:10:42.180Z,8.70
2017-07-05T19:13:10.272Z,10.20
2017-07-05T19:15:38.355Z,10.30
2017-07-05T19:18:06.451Z,10.57
2017-07-05T19:20:35.305Z,9.83
2017-07-05T19:23:03.369Z,9.70
2017-07-05T19:25:31.459Z,10.10
2017-07-05T19:27:59.559Z,11.23
2017-07-05T19:30:27.673Z,10.73
2017-07-05T19:32:55.744Z,10.27
2017-07-05T19:35:23.835Z,10.70
2017-07-05T19:37:51.901Z,11.27
2017-07-05T19:40:19.972Z,9.03
2017-07-05T19:42:48.143Z,10.40
2017-07-05T19:45:16.230Z,10.17
2017-07-05T19:47:44.295Z,10.27
2017-07-05T19:50:12.455Z,11.40
2017-07-05T19:52:40.567Z,12.23
2017-07-05T19:55:09.428Z,9.83
2017-07-05T19:57:37.504Z,10.93
2017-07-05T20:00:05.601Z,10.87
2017-07-05T20:02:34.475Z,11.80
2017-07-05T20:05:03.388Z,10.20
2017-07-05T20:07:32.286Z,11.23
2017-07-05T20:10:00.384Z,12.07
2017-07-05T20:12:28.455Z,11.00
2017-07-05T20:14:56.599Z,11.47
2017-07-05T20:17:24.663Z,11.27
2017-07-05T20:19:53.509Z,14.57
2017-07-05T20:22:21.585Z,10.77
2017-07-05T20:24:49.661Z,12.07
2017-07-05T20:27:17.760Z,11.63
2017-07-05T20:29:45.876Z,11.20
2017-07-05T20:32:13.977Z,11.57
2017-07-05T20:34:42.042Z,14.43
2017-07-05T20:37:10.138Z,12.57
2017-07-05T20:39:38.204Z,10.80
2017-07-05T20:42:06.319Z,11.77
2017-07-05T20:44:34.400Z,12.07
2017-07-05T20:47:02.499Z,12.90
2017-07-05T20:49:31.367Z,11.90
2017-07-05T20:51:59.646Z,13.00
2017-07-05T20:54:27.708Z,11.93
2017-07-05T20:56:55.776Z,13.77
2017-07-05T20:59:23.887Z,12.50
2017-07-05T21:01:52.735Z,12.40
2017-07-05T21:04:20.804Z,11.87
2017-07-05T21:06:48.905Z,11.60
2017-07-05T21:09:16.978Z,11.83
2017-07-05T21:11:45.056Z,11.90
2017-07-05T21:14:13.885Z,12.53
2017-07-05T21:16:41.956Z,12.43
2017-07-05T21:19:10.031Z,11.73
2017-07-05T21:21:38.129Z,12.10
2017-07-05T21:24:06.224Z,12.80
2017-07-05T21:26:34.299Z,12.30
2017-07-05T21:29:02.391Z,13.07
2017-07-05T21:31:31.226Z,15.80
2017-07-05T21:33:59.321Z,13.30
2017-07-05T21:36:27.410Z,14.30
2017-07-05T21:38:55.483Z,13.17
2017-07-05T21:41:24.305Z,12.73
2017-07-05T21:43:52.413Z,15.40
2017-07-05T21:46:20.481Z,13.70
2017-07-05T21:48:48.535Z,15.57
2017-07-05T21:51:16.627Z,13.57
2017-07-05T21:53:44.688Z,12.57
2017-07-05T21:56:12.756Z,16.53
2017-07-05T21:58:40.840Z,14.60
2017-07-05T22:01:08.912Z,11.53
2017-07-05T22:03:37.003Z,11.47
2017-07-05T22:06:05.135Z,13.03
2017-07-05T22:08:33.216Z,13.30
2017-07-05T22:11:01.305Z,11.60
2017-07-05T22:13:29.396Z,13.63
2017-07-05T22:15:57.463Z,13.70
2017-07-05T22:18:25.561Z,12.77
2017-07-05T22:20:54.392Z,12.47
2017-07-05T22:23:22.472Z,13.73
2017-07-05T22:25:50.554Z,12.57
2017-07-05T22:28:18.639Z,13.33
2017-07-05T22:30:46.720Z,13.03
2017-07-05T22:33:14.779Z,12.90
2017-07-05T22:35:42.870Z,12.47
2017-07-05T22:38:10.951Z,12.57
2017-07-05T22:40:39.791Z,16.10
2017-07-05T22:43:07.866Z,14.30
2017-07-05T22:45:35.943Z,13.47
2017-07-05T22:48:04.011Z,13.37
2017-07-05T22:50:32.132Z,14.37
2017-07-05T22:53:00.190Z,12.83
2017-07-05T22:55:28.266Z,14.13
2017-07-05T22:57:56.343Z,15.20
2017-07-05T23:00:25.364Z,13.97
2017-07-05T23:02:53.420Z,13.50
2017-07-05T23:05:22.265Z,14.20
2017-07-05T23:07:50.363Z,13.80
2017-07-05T23:10:19.200Z,17.20
2017-07-05T23:12:47.280Z,12.90
2017-07-05T23:15:15.376Z,11.93
2017-07-05T23:17:43.456Z,12.47
2017-07-05T23:20:11.505Z,12.50
2017-07-05T23:22:39.602Z,13.43
2017-07-05T23:25:07.688Z,14.27
2017-07-05T23:27:36.510Z,12.67
2017-07-05T23:30:04.604Z,13.53
2017-07-05T23:32:32.671Z,14.60
2017-07-05T23:35:00.750Z,14.97
2017-07-05T23:37:28.843Z,15.03
2017-07-05T23:39:56.916Z,16.27
2017-07-05T23:42:24.983Z,15.60
2017-07-05T23:44:53.082Z,15.90
2017-07-05T23:47:21.127Z,15.20
2017-07-05T23:49:49.176Z,13.73
2017-07-05T23:52:17.267Z,15.23
2017-07-05T23:54:45.347Z,16.37
2017-07-05T23:57:13.408Z,15.57
2017-07-05T23:59:41.483Z,14.70
